Terminal Aerodrome Forecast
Issued by NWS

Home | Current Version | Previous Version | Text Only | Print | Product List | Glossary On
Versions: 1 2 3 4 5 6 7 8 9 10 11 12 13 14 15 16 17 18 19 20 21 22 23 24 25 26 27 28 29 30 31 32 33 34 35 36 37 38 39 40 41 42 43 44 45 46 47 48 49 50
000
FTUS45 KBOU 232339
TAFBJC
TAF
KBJC 232339Z 2400/2424 34012KT P6SM SCT050 BKN090 BKN150
     FM240400 27010KT P6SM FEW120 SCT200
     FM240900 29012G22KT P6SM SCT200
     FM241400 29015G25KT P6SM FEW070 SCT100 BKN220
     FM242000 33012KT P6SM SCT070 BKN110 BKN200=

USA.gov is the U.S. government's official web portal to all federal, state and local government web resources and services.